Time;durP1;ratioP1;P1;durP2;ratioP2;P2;SDS_P1;SDS_P2;PMS_P1;PMS_P2;Temp;Humidity;BMP_temperature;BMP_pressure;BME280_temperature;BME280_humidity;BME280_pressure;Samples;Min_cycle;Max_cycle;Signal;HPM_P1;HPM_P2
2024/03/31 00:00:01;;;;;;;14.73;9.00;;;22.60;74.40;;;;;;5068648;28;20454;-75
2024/03/31 00:02:27;;;;;;;23.00;10.80;;;22.60;74.20;;;;;;5067240;28;20456;-76
2024/03/31 00:04:53;;;;;;;18.53;10.40;;;22.60;74.50;;;;;;5064300;28;20535;-77
2024/03/31 00:07:20;;;;;;;25.37;10.67;;;22.50;74.90;;;;;;5064229;28;20448;-78
2024/03/31 00:09:48;;;;;;;21.27;10.83;;;22.50;75.60;;;;;;5060092;28;20217;-77
2024/03/31 00:12:15;;;;;;;23.13;10.57;;;22.50;76.10;;;;;;5064334;28;20549;-79
2024/03/31 00:14:41;;;;;;;21.50;8.77;;;22.40;76.20;;;;;;5066705;28;20478;-77
2024/03/31 00:17:09;;;;;;;17.13;8.63;;;22.40;75.70;;;;;;5060989;28;20456;-74
2024/03/31 00:19:34;;;;;;;17.37;8.50;;;22.40;75.70;;;;;;5058188;28;20190;-73
2024/03/31 00:22:01;;;;;;;17.03;9.40;;;22.40;75.70;;;;;;5061765;28;20536;-74
2024/03/31 00:24:27;;;;;;;15.60;8.60;;;22.30;75.70;;;;;;5059419;28;20202;-75
2024/03/31 00:26:55;;;;;;;14.37;7.57;;;22.30;75.70;;;;;;5061702;28;21017;-72
2024/03/31 00:29:21;;;;;;;20.23;8.83;;;22.30;75.90;;;;;;5063976;28;20462;-73
2024/03/31 00:31:48;;;;;;;14.63;7.80;;;22.30;76.00;;;;;;5057533;28;20483;-72
2024/03/31 00:34:14;;;;;;;15.30;7.73;;;22.20;75.90;;;;;;5058868;28;20463;-72
2024/03/31 00:36:41;;;;;;;15.97;8.60;;;22.20;76.10;;;;;;5062715;28;21811;-72
2024/03/31 00:39:09;;;;;;;16.87;8.63;;;22.20;76.20;;;;;;5057331;28;20469;-73
2024/03/31 00:41:35;;;;;;;16.03;8.53;;;22.10;76.20;;;;;;5058615;28;20451;-73
2024/03/31 00:44:03;;;;;;;14.70;8.27;;;22.10;76.30;;;;;;5059304;28;20447;-72
2024/03/31 00:46:30;;;;;;;14.03;7.60;;;22.00;76.40;;;;;;5057474;28;21010;-72
2024/03/31 00:48:56;;;;;;;11.80;6.77;;;22.00;76.70;;;;;;5062859;28;20866;-72
2024/03/31 00:51:22;;;;;;;10.90;6.87;;;22.00;76.80;;;;;;5064041;28;20475;-72
2024/03/31 00:53:48;;;;;;;12.13;7.60;;;22.00;76.90;;;;;;5060217;28;20208;-70
2024/03/31 00:56:15;;;;;;;12.00;8.00;;;21.90;76.80;;;;;;5058101;28;21000;-71
2024/03/31 00:58:41;;;;;;;11.10;6.87;;;21.90;77.00;;;;;;5064828;28;20902;-73
2024/03/31 01:01:10;;;;;;;12.50;7.30;;;21.90;77.20;;;;;;5059736;28;20447;-70
2024/03/31 01:03:36;;;;;;;14.93;7.77;;;21.80;77.20;;;;;;5060125;28;20545;-71
2024/03/31 01:06:09;;;;;;;11.53;7.03;;;21.80;77.20;;;;;;5058822;28;20960;-72
2024/03/31 01:08:34;;;;;;;16.03;6.87;;;21.80;77.40;;;;;;5057931;28;20460;-72
2024/03/31 01:11:01;;;;;;;12.73;7.90;;;21.70;77.30;;;;;;5056484;28;20471;-72
2024/03/31 01:13:27;;;;;;;11.87;7.10;;;21.70;77.60;;;;;;5063505;28;20205;-73
2024/03/31 01:15:54;;;;;;;14.20;7.50;;;21.70;77.70;;;;;;5064681;28;20977;-72
2024/03/31 01:18:21;;;;;;;12.13;7.33;;;21.60;77.70;;;;;;5064158;28;21314;-71
2024/03/31 01:20:48;;;;;;;15.50;7.10;;;21.60;77.80;;;;;;5061605;28;20459;-71
2024/03/31 01:23:17;;;;;;;14.13;8.00;;;21.50;77.90;;;;;;5063441;28;20463;-73
2024/03/31 01:25:45;;;;;;;9.77;6.90;;;21.60;78.20;;;;;;5062565;28;20517;-71
2024/03/31 01:28:11;;;;;;;10.80;7.10;;;21.50;78.20;;;;;;5067230;28;20491;-72
2024/03/31 01:30:37;;;;;;;12.50;6.97;;;21.50;78.40;;;;;;5066809;28;20475;-73
2024/03/31 01:33:04;;;;;;;11.10;6.67;;;21.40;79.20;;;;;;5070568;28;20685;-71
2024/03/31 01:35:31;;;;;;;11.03;7.13;;;21.40;78.60;;;;;;5072638;28;20486;-69
2024/03/31 01:37:56;;;;;;;7.75;5.75;;;21.40;78.70;;;;;;5071288;28;20465;-72
2024/03/31 01:40:23;;;;;;;13.27;7.90;;;21.40;78.90;;;;;;5067256;28;20657;-72
2024/03/31 01:42:50;;;;;;;12.90;7.50;;;21.30;78.90;;;;;;5065732;28;20205;-73
2024/03/31 01:45:18;;;;;;;15.57;6.20;;;21.30;79.00;;;;;;5067959;28;20479;-73
2024/03/31 01:47:44;;;;;;;10.97;6.30;;;21.30;79.10;;;;;;5072431;28;20460;-72
2024/03/31 01:50:10;;;;;;;11.10;7.33;;;21.30;79.20;;;;;;5071497;28;20988;-70
2024/03/31 01:52:36;;;;;;;13.30;7.63;;;21.20;79.20;;;;;;5062362;28;20204;-74
2024/03/31 01:55:03;;;;;;;8.37;6.10;;;21.20;79.30;;;;;;5071681;28;20661;-73
2024/03/31 01:57:28;;;;;;;8.07;6.23;;;21.20;79.40;;;;;;5071286;28;20206;-73
2024/03/31 01:59:56;;;;;;;11.83;6.97;;;21.20;79.50;;;;;;5068711;28;21618;-73
2024/03/31 02:02:22;;;;;;;11.70;6.25;;;21.20;79.60;;;;;;5069215;28;20209;-72
2024/03/31 02:04:49;;;;;;;8.90;6.23;;;21.10;79.50;;;;;;5068444;28;20204;-72
2024/03/31 02:07:14;;;;;;;11.53;5.80;;;21.10;79.60;;;;;;5063695;28;20260;-73
2024/03/31 02:09:41;;;;;;;10.97;6.77;;;21.10;79.70;;;;;;5063083;28;20473;-75
2024/03/31 02:12:07;;;;;;;10.05;6.50;;;21.10;79.70;;;;;;5064712;28;20218;-70
2024/03/31 02:14:34;;;;;;;9.23;6.30;;;21.00;79.70;;;;;;5063605;28;20543;-72
2024/03/31 02:17:01;;;;;;;7.80;6.05;;;21.00;79.80;;;;;;5063766;28;20207;-73
2024/03/31 02:19:28;;;;;;;8.85;6.00;;;21.00;80.00;;;;;;5064580;28;20626;-72
2024/03/31 02:21:54;;;;;;;9.75;6.30;;;21.00;80.10;;;;;;5060636;28;20651;-70
2024/03/31 02:24:20;;;;;;;14.13;6.97;;;20.90;80.10;;;;;;5058708;28;20185;-73
2024/03/31 02:26:46;;;;;;;7.88;6.07;;;20.90;80.30;;;;;;5061423;28;20202;-72
2024/03/31 02:29:12;;;;;;;9.90;6.53;;;20.90;80.40;;;;;;5060797;28;20221;-72
2024/03/31 02:31:38;;;;;;;11.77;5.75;;;20.90;80.50;;;;;;5062694;28;20835;-72
2024/03/31 02:34:06;;;;;;;12.60;6.70;;;20.90;80.70;;;;;;5063611;28;20289;-71
2024/03/31 02:36:32;;;;;;;7.95;5.80;;;20.80;80.70;;;;;;5061262;28;20990;-72
2024/03/31 02:39:00;;;;;;;8.50;6.33;;;20.80;80.80;;;;;;5061439;28;20201;-72
2024/03/31 02:41:25;;;;;;;7.65;6.65;;;20.80;80.90;;;;;;5062417;28;20255;-73
2024/03/31 02:43:52;;;;;;;8.27;5.47;;;20.70;81.00;;;;;;5063406;28;20616;-74
2024/03/31 02:46:18;;;;;;;8.07;6.63;;;20.70;81.10;;;;;;5060811;28;21208;-73
2024/03/31 02:48:45;;;;;;;8.13;6.77;;;20.70;81.20;;;;;;5060396;28;20194;-73
2024/03/31 02:51:12;;;;;;;9.85;6.13;;;20.70;81.40;;;;;;5062463;28;20487;-73
2024/03/31 02:53:39;;;;;;;8.95;6.35;;;20.60;81.40;;;;;;5061549;28;20670;-72
2024/03/31 02:56:05;;;;;;;9.65;5.95;;;20.60;81.60;;;;;;5062524;28;20202;-70
2024/03/31 02:58:31;;;;;;;10.17;7.10;;;20.60;81.70;;;;;;5058915;28;21178;-72
2024/03/31 03:01:03;;;;;;;11.02;6.22;;;20.60;81.80;;;;;;5062160;28;20488;-71
2024/03/31 03:03:29;;;;;;;11.77;7.07;;;20.50;81.90;;;;;;5060787;28;20198;-72
2024/03/31 03:05:55;;;;;;;7.10;5.13;;;20.50;82.00;;;;;;5063657;28;20194;-72
2024/03/31 03:08:23;;;;;;;9.70;6.30;;;20.50;82.10;;;;;;5061014;28;21038;-73
2024/03/31 03:10:51;;;;;;;5.70;5.00;;;20.50;82.30;;;;;;5061915;28;20272;-73
2024/03/31 03:13:18;;;;;;;7.78;5.40;;;20.40;82.30;;;;;;5061310;28;20201;-74
2024/03/31 03:15:44;;;;;;;6.55;5.10;;;20.40;82.50;;;;;;5062994;28;20551;-71
2024/03/31 03:18:12;;;;;;;8.13;5.03;;;20.40;82.60;;;;;;5062534;28;20259;-71
2024/03/31 03:20:38;;;;;;;10.30;5.45;;;20.40;82.80;;;;;;5061804;28;20189;-72
2024/03/31 03:23:05;;;;;;;7.47;6.03;;;20.40;82.90;;;;;;5062382;28;21265;-73
2024/03/31 03:25:32;;;;;;;8.15;5.65;;;20.30;82.90;;;;;;5060672;28;20206;-73
2024/03/31 03:27:59;;;;;;;11.35;5.80;;;20.30;83.00;;;;;;5062169;28;20202;-70
2024/03/31 03:30:24;;;;;;;9.50;6.55;;;20.30;83.10;;;;;;5061319;28;20229;-73
2024/03/31 03:32:52;;;;;;;11.53;6.47;;;20.30;83.20;;;;;;5062636;28;20670;-71
2024/03/31 03:35:18;;;;;;;9.23;6.05;;;20.30;83.40;;;;;;5059710;28;20296;-72
2024/03/31 03:37:45;;;;;;;8.65;4.93;;;20.20;83.40;;;;;;5061520;28;20201;-71
2024/03/31 03:40:10;;;;;;;9.00;5.45;;;20.20;83.50;;;;;;5062863;28;20588;-72
2024/03/31 03:42:39;;;;;;;8.93;5.73;;;20.20;83.60;;;;;;5063937;28;20193;-73
2024/03/31 03:45:06;;;;;;;8.48;6.00;;;20.20;83.70;;;;;;5064206;28;20444;-73
2024/03/31 03:47:33;;;;;;;7.10;4.80;;;20.20;83.80;;;;;;5063576;28;20287;-73
2024/03/31 03:49:58;;;;;;;9.82;6.18;;;20.10;83.80;;;;;;5061507;28;20206;-72
2024/03/31 03:52:25;;;;;;;6.40;4.97;;;20.10;83.90;;;;;;5061895;28;20814;-71
2024/03/31 03:54:51;;;;;;;8.25;5.70;;;20.10;84.00;;;;;;5062964;28;21125;-72
2024/03/31 03:57:17;;;;;;;7.77;5.40;;;20.10;84.20;;;;;;5064253;28;20204;-73
2024/03/31 03:59:44;;;;;;;6.00;4.30;;;20.10;84.20;;;;;;5065149;28;20202;-73
2024/03/31 04:02:11;;;;;;;9.63;5.18;;;20.00;84.30;;;;;;5063595;28;20200;-70
2024/03/31 04:04:37;;;;;;;7.85;5.57;;;20.00;84.30;;;;;;5064376;28;20202;-72
2024/03/31 04:07:03;;;;;;;9.67;5.03;;;20.00;84.50;;;;;;5059782;28;20189;-73
2024/03/31 04:09:29;;;;;;;5.85;5.13;;;20.00;84.50;;;;;;5064040;28;20193;-72
2024/03/31 04:11:56;;;;;;;9.40;5.50;;;20.00;84.70;;;;;;5065849;28;20970;-71
2024/03/31 04:14:22;;;;;;;6.00;5.32;;;19.90;84.60;;;;;;5064473;28;20198;-74
2024/03/31 04:16:50;;;;;;;6.60;5.57;;;19.90;84.80;;;;;;5064874;28;20202;-72
2024/03/31 04:19:15;;;;;;;6.20;4.63;;;19.90;84.90;;;;;;5065868;28;20205;-73
2024/03/31 04:21:42;;;;;;;8.00;5.23;;;19.90;85.00;;;;;;5066777;28;20190;-72
2024/03/31 04:24:09;;;;;;;5.68;5.07;;;19.90;85.00;;;;;;5063374;28;20198;-73
2024/03/31 04:26:35;;;;;;;6.93;4.97;;;19.90;85.10;;;;;;5061798;28;20862;-72
2024/03/31 04:29:01;;;;;;;7.00;5.50;;;19.80;85.20;;;;;;5053263;28;20658;-72
2024/03/31 04:31:28;;;;;;;8.07;5.43;;;19.80;85.30;;;;;;5067390;28;20294;-72
2024/03/31 04:33:55;;;;;;;10.65;6.18;;;19.80;85.40;;;;;;5069819;28;20201;-73
2024/03/31 04:36:21;;;;;;;8.20;5.43;;;19.80;85.50;;;;;;5067302;28;20213;-72
2024/03/31 04:38:47;;;;;;;8.40;4.95;;;19.80;85.50;;;;;;5060549;28;20201;-71
2024/03/31 04:41:14;;;;;;;7.00;4.53;;;19.80;85.60;;;;;;5059690;28;20186;-74
2024/03/31 04:43:40;;;;;;;7.13;5.07;;;19.70;85.60;;;;;;5059711;28;20226;-71
2024/03/31 04:46:09;;;;;;;5.17;4.10;;;19.70;85.70;;;;;;5060927;28;20304;-72
2024/03/31 04:48:36;;;;;;;5.75;4.40;;;19.70;85.80;;;;;;5058439;28;20193;-70
2024/03/31 04:51:05;;;;;;;5.60;4.50;;;19.70;85.90;;;;;;5064733;28;20217;-72
2024/03/31 04:53:32;;;;;;;8.23;5.47;;;19.70;86.00;;;;;;5060171;28;20259;-71
2024/03/31 04:56:01;;;;;;;6.03;4.72;;;19.70;86.60;;;;;;5061266;28;20198;-73
2024/03/31 04:58:27;;;;;;;6.72;4.80;;;19.70;86.20;;;;;;5061145;28;20886;-74
2024/03/31 05:00:54;;;;;;;6.80;5.05;;;19.70;86.30;;;;;;5060849;28;20197;-73
2024/03/31 05:03:20;;;;;;;6.82;5.10;;;19.60;86.30;;;;;;5065472;28;20206;-70
2024/03/31 05:05:46;;;;;;;8.57;4.32;;;19.60;86.30;;;;;;5065706;28;20194;-72
2024/03/31 05:08:13;;;;;;;6.93;5.80;;;19.60;86.40;;;;;;5070111;28;20206;-72
2024/03/31 05:10:40;;;;;;;6.80;5.22;;;19.60;86.50;;;;;;5062148;28;21686;-73
2024/03/31 05:13:06;;;;;;;7.53;5.45;;;19.60;86.60;;;;;;5068964;28;20220;-73
2024/03/31 05:15:33;;;;;;;6.27;4.80;;;19.60;86.70;;;;;;5070496;28;20194;-72
2024/03/31 05:17:58;;;;;;;7.45;5.90;;;19.60;86.80;;;;;;5070179;28;20270;-70
2024/03/31 05:20:25;;;;;;;6.67;4.43;;;19.60;86.80;;;;;;5066744;28;20194;-73
2024/03/31 05:22:53;;;;;;;7.78;4.85;;;19.50;86.90;;;;;;5066661;28;20198;-72
2024/03/31 05:25:21;;;;;;;6.90;5.07;;;19.50;86.90;;;;;;5065072;28;20207;-71
2024/03/31 05:27:47;;;;;;;6.13;4.18;;;19.50;87.00;;;;;;5063160;28;20190;-71
2024/03/31 05:30:13;;;;;;;7.57;5.93;;;19.50;87.00;;;;;;5064005;28;20233;-74
2024/03/31 05:32:39;;;;;;;6.60;4.70;;;19.50;87.10;;;;;;5061552;28;20226;-71
2024/03/31 05:35:06;;;;;;;5.07;4.57;;;19.50;87.20;;;;;;5063322;28;20213;-72
2024/03/31 05:37:32;;;;;;;7.80;5.40;;;19.40;87.20;;;;;;5061670;28;20550;-72
2024/03/31 05:39:58;;;;;;;7.57;5.37;;;19.40;87.30;;;;;;5062352;28;20190;-72
2024/03/31 05:42:26;;;;;;;5.82;5.15;;;19.40;87.30;;;;;;5062226;28;20288;-71
2024/03/31 05:44:52;;;;;;;6.95;4.28;;;19.40;87.40;;;;;;5062371;28;20233;-73
2024/03/31 05:47:18;;;;;;;5.45;3.97;;;19.40;87.50;;;;;;5060777;28;20198;-72
2024/03/31 05:49:44;;;;;;;8.20;5.00;;;19.40;87.50;;;;;;5065512;28;20731;-72
2024/03/31 05:52:10;;;;;;;5.60;4.90;;;19.40;87.60;;;;;;5064236;28;20224;-73
2024/03/31 05:54:37;;;;;;;5.50;4.40;;;19.40;87.70;;;;;;5061802;28;20205;-72
2024/03/31 05:57:03;;;;;;;5.70;4.72;;;19.40;87.90;;;;;;5068206;28;20210;-72
2024/03/31 05:59:31;;;;;;;6.30;4.37;;;19.30;87.80;;;;;;5066285;28;20205;-73
2024/03/31 06:01:57;;;;;;;7.40;4.97;;;19.30;87.90;;;;;;5066944;28;20460;-71
2024/03/31 06:04:23;;;;;;;4.67;4.00;;;19.30;88.00;;;;;;5063393;28;20201;-73
2024/03/31 06:06:49;;;;;;;4.55;4.15;;;19.30;88.00;;;;;;5066706;28;20206;-72
2024/03/31 06:09:16;;;;;;;6.30;4.40;;;19.30;88.10;;;;;;5066107;28;20600;-73
2024/03/31 06:11:42;;;;;;;7.35;5.03;;;19.20;87.20;;;;;;5065565;28;20505;-73
2024/03/31 06:14:09;;;;;;;6.18;4.90;;;19.30;87.50;;;;;;5064028;28;20198;-72
2024/03/31 06:16:36;;;;;;;5.85;4.70;;;19.20;88.10;;;;;;5066611;28;20205;-72
2024/03/31 06:19:03;;;;;;;4.47;4.00;;;19.20;87.70;;;;;;5063946;28;20296;-73
2024/03/31 06:21:29;;;;;;;5.43;4.13;;;19.20;87.50;;;;;;5064553;28;20202;-71
2024/03/31 06:23:55;;;;;;;4.93;4.17;;;19.20;88.20;;;;;;5067539;28;20617;-70
2024/03/31 06:26:21;;;;;;;5.20;4.00;;;19.20;88.10;;;;;;5067746;28;21092;-72
2024/03/31 06:28:48;;;;;;;5.17;4.20;;;19.10;88.10;;;;;;5064483;28;20190;-72
2024/03/31 06:31:13;;;;;;;5.30;3.78;;;19.20;88.50;;;;;;5066271;28;20668;-72
2024/03/31 06:33:43;;;;;;;6.93;4.27;;;19.20;88.50;;;;;;5069235;28;20217;-73
2024/03/31 06:36:09;;;;;;;4.70;3.78;;;19.10;87.70;;;;;;5062967;28;20220;-73
2024/03/31 06:38:36;;;;;;;6.20;4.50;;;19.20;89.20;;;;;;5063393;28;20194;-73
2024/03/31 06:41:02;;;;;;;5.45;4.30;;;19.20;89.00;;;;;;5061569;28;20460;-71
2024/03/31 06:43:29;;;;;;;6.63;4.63;;;19.20;89.00;;;;;;5062220;28;20198;-73
2024/03/31 06:45:56;;;;;;;5.60;4.40;;;19.30;88.90;;;;;;5060424;28;20501;-71
2024/03/31 06:48:22;;;;;;;4.68;4.07;;;19.40;88.70;;;;;;5062756;28;20202;-71
2024/03/31 06:50:50;;;;;;;5.85;4.30;;;19.50;88.40;;;;;;5062780;28;20194;-73
2024/03/31 06:53:15;;;;;;;4.13;3.55;;;19.60;88.10;;;;;;5061334;28;20202;-72
2024/03/31 06:55:43;;;;;;;4.73;3.97;;;19.70;87.20;;;;;;5061040;28;20206;-73
2024/03/31 06:58:09;;;;;;;4.57;4.10;;;19.70;87.00;;;;;;5060102;28;20726;-72
2024/03/31 07:00:35;;;;;;;4.10;3.70;;;19.80;87.30;;;;;;5060488;28;20193;-72
2024/03/31 07:03:01;;;;;;;4.05;3.65;;;19.80;86.80;;;;;;5063931;28;20683;-71
2024/03/31 07:05:28;;;;;;;5.30;4.47;;;19.90;86.70;;;;;;5061335;28;20190;-73
2024/03/31 07:07:55;;;;;;;7.18;5.20;;;19.90;85.90;;;;;;5064373;28;20216;-72
2024/03/31 07:10:23;;;;;;;4.28;3.55;;;20.00;86.10;;;;;;5058734;28;20285;-72
2024/03/31 07:12:49;;;;;;;4.47;3.90;;;20.00;86.10;;;;;;5064721;28;20222;-72
2024/03/31 07:15:16;;;;;;;4.13;3.70;;;20.10;86.20;;;;;;5063392;28;20216;-71
2024/03/31 07:17:42;;;;;;;5.45;4.00;;;20.10;85.90;;;;;;5067216;28;20198;-72
2024/03/31 07:20:10;;;;;;;3.80;3.45;;;20.10;85.60;;;;;;5062788;28;20233;-73
2024/03/31 07:22:35;;;;;;;4.45;3.92;;;20.10;85.60;;;;;;5063182;28;20190;-69
2024/03/31 07:25:04;;;;;;;5.77;3.70;;;20.20;85.50;;;;;;5057205;28;20579;-72
2024/03/31 07:27:29;;;;;;;5.45;3.50;;;20.30;85.30;;;;;;5061906;28;20676;-72
2024/03/31 07:29:56;;;;;;;4.70;3.77;;;20.30;85.10;;;;;;5062127;28;20198;-73
2024/03/31 07:32:22;;;;;;;5.45;4.47;;;20.40;84.70;;;;;;5062999;28;20677;-73
2024/03/31 07:34:48;;;;;;;5.23;3.90;;;20.30;84.80;;;;;;5067717;28;20211;-73
2024/03/31 07:37:14;;;;;;;4.90;3.83;;;20.40;84.80;;;;;;5064557;28;20674;-72
2024/03/31 07:39:41;;;;;;;4.60;3.87;;;20.40;84.50;;;;;;5062803;28;20338;-74
2024/03/31 07:42:09;;;;;;;4.10;3.70;;;20.50;84.30;;;;;;5063091;28;20668;-72
2024/03/31 07:44:35;;;;;;;5.68;3.63;;;20.50;83.90;;;;;;5064702;28;20203;-74
2024/03/31 07:47:01;;;;;;;5.25;3.75;;;20.60;83.50;;;;;;5066293;28;20207;-71
2024/03/31 07:49:28;;;;;;;4.30;3.90;;;20.70;83.50;;;;;;5059156;28;20193;-73
2024/03/31 07:51:53;;;;;;;5.77;4.77;;;20.80;83.20;;;;;;5064340;28;20232;-73
2024/03/31 07:54:20;;;;;;;4.83;4.37;;;20.90;82.60;;;;;;5064428;28;20455;-73
2024/03/31 07:56:46;;;;;;;5.30;4.17;;;20.90;83.30;;;;;;5066815;28;20198;-74
2024/03/31 07:59:14;;;;;;;4.67;4.13;;;21.00;82.50;;;;;;5062860;28;20474;-72
2024/03/31 08:01:39;;;;;;;7.13;4.90;;;21.00;82.90;;;;;;5062638;28;20216;-73
2024/03/31 08:04:06;;;;;;;5.70;4.07;;;21.00;82.10;;;;;;5064261;28;20952;-73
2024/03/31 08:06:32;;;;;;;5.80;5.07;;;21.00;83.00;;;;;;5060196;28;20201;-71
2024/03/31 08:08:59;;;;;;;5.27;3.73;;;21.00;82.50;;;;;;5066926;28;20450;-75
2024/03/31 08:11:24;;;;;;;6.97;4.07;;;21.00;82.70;;;;;;5064252;28;20249;-73
2024/03/31 08:13:51;;;;;;;4.30;3.90;;;21.10;82.90;;;;;;5066334;28;21074;-73
2024/03/31 08:16:18;;;;;;;5.20;4.03;;;21.10;82.60;;;;;;5064176;28;21058;-72
2024/03/31 08:18:45;;;;;;;5.97;3.80;;;21.20;82.60;;;;;;5062358;28;21327;-74
2024/03/31 08:21:11;;;;;;;5.00;4.00;;;21.20;82.20;;;;;;5059376;28;21271;-72
2024/03/31 08:23:38;;;;;;;8.90;4.00;;;21.30;82.40;;;;;;5065298;28;20452;-73
2024/03/31 08:26:04;;;;;;;5.80;4.20;;;21.30;82.00;;;;;;5063469;28;20474;-74
2024/03/31 08:28:31;;;;;;;5.03;4.53;;;21.50;81.50;;;;;;5064585;28;20447;-74
2024/03/31 08:30:56;;;;;;;4.87;4.20;;;21.70;80.90;;;;;;5063385;28;21095;-73
2024/03/31 08:33:24;;;;;;;5.13;4.10;;;21.60;80.40;;;;;;5063862;28;20488;-74
2024/03/31 08:35:51;;;;;;;4.60;4.13;;;21.60;80.50;;;;;;5065613;28;20214;-74
2024/03/31 08:38:17;;;;;;;4.77;4.30;;;21.60;80.60;;;;;;5061428;28;20455;-73
2024/03/31 08:40:47;;;;;;;4.47;3.97;;;21.70;81.00;;;;;;5067848;28;20557;-72
2024/03/31 08:43:17;;;;;;;5.63;4.00;;;21.70;80.70;;;;;;5067644;28;20805;-74
2024/03/31 08:45:43;;;;;;;5.07;4.57;;;21.70;80.30;;;;;;5072004;28;21003;-74
2024/03/31 08:48:12;;;;;;;6.30;3.87;;;21.70;80.10;;;;;;5070677;28;20447;-74
2024/03/31 08:50:40;;;;;;;4.23;3.83;;;21.80;79.90;;;;;;5066747;28;20216;-73
2024/03/31 08:53:07;;;;;;;4.17;3.67;;;21.90;79.80;;;;;;5070245;28;20537;-73
2024/03/31 08:55:33;;;;;;;8.10;4.17;;;22.00;80.40;;;;;;5071203;28;21506;-73
2024/03/31 08:57:59;;;;;;;4.87;4.37;;;22.10;79.20;;;;;;5071785;28;20565;-74
2024/03/31 09:00:25;;;;;;;6.03;3.53;;;22.20;78.50;;;;;;5066727;28;20204;-73
2024/03/31 09:02:52;;;;;;;4.30;3.67;;;22.30;78.20;;;;;;5059396;28;21122;-71
2024/03/31 09:05:18;;;;;;;4.30;3.90;;;22.30;78.20;;;;;;5066052;28;20482;-72
2024/03/31 09:07:47;;;;;;;4.83;4.10;;;22.40;78.00;;;;;;5062780;28;20447;-72
2024/03/31 09:10:14;;;;;;;5.07;4.50;;;22.50;77.70;;;;;;5064762;28;20459;-72
2024/03/31 09:12:43;;;;;;;4.30;3.90;;;22.50;77.10;;;;;;5065443;28;21370;-73
2024/03/31 09:15:09;;;;;;;4.20;3.80;;;22.60;77.00;;;;;;5066370;28;20491;-72
2024/03/31 09:17:36;;;;;;;5.97;3.87;;;22.60;76.40;;;;;;5066902;28;21386;-72
2024/03/31 09:20:02;;;;;;;3.87;3.47;;;22.70;76.10;;;;;;5067060;28;21069;-72
2024/03/31 09:22:29;;;;;;;5.93;4.63;;;22.70;76.20;;;;;;5064997;28;20447;-73
2024/03/31 09:24:56;;;;;;;5.07;3.73;;;22.80;76.20;;;;;;5065628;28;20472;-73
2024/03/31 09:27:24;;;;;;;4.30;3.90;;;22.80;76.10;;;;;;5065484;28;20460;-73
2024/03/31 09:29:50;;;;;;;4.93;4.33;;;22.90;76.00;;;;;;5067930;28;22343;-73
2024/03/31 09:32:17;;;;;;;5.77;3.40;;;22.90;75.70;;;;;;5066574;28;20476;-72
2024/03/31 09:34:43;;;;;;;6.23;4.00;;;23.00;75.60;;;;;;5068029;28;20296;-73
2024/03/31 09:37:10;;;;;;;6.23;4.17;;;23.10;75.90;;;;;;5067315;28;20449;-75
2024/03/31 09:39:37;;;;;;;8.23;4.10;;;23.10;75.60;;;;;;5064033;28;20557;-72
2024/03/31 09:42:06;;;;;;;4.00;3.20;;;23.20;75.20;;;;;;5069964;28;20459;-72
2024/03/31 09:44:33;;;;;;;4.30;3.37;;;23.30;75.00;;;;;;5059760;28;21003;-72
2024/03/31 09:46:59;;;;;;;7.50;3.83;;;23.30;74.50;;;;;;5066787;28;20845;-72
2024/03/31 09:49:29;;;;;;;3.40;3.10;;;23.30;74.00;;;;;;5066146;28;20548;-72
2024/03/31 09:51:58;;;;;;;3.50;2.90;;;23.40;74.00;;;;;;5062874;28;20477;-72
2024/03/31 09:54:32;;;;;;;7.53;3.90;;;23.40;73.70;;;;;;5070084;28;20457;-72
2024/03/31 09:57:02;;;;;;;4.90;3.53;;;23.40;73.30;;;;;;5070401;28;21325;-72
2024/03/31 09:59:36;;;;;;;5.67;3.73;;;23.50;73.10;;;;;;5070346;28;20446;-71
2024/03/31 10:02:02;;;;;;;4.07;3.30;;;23.50;72.70;;;;;;5066433;28;20455;-70
2024/03/31 10:04:36;;;;;;;3.47;3.17;;;23.60;72.60;;;;;;5067048;28;20476;-71
2024/03/31 10:07:04;;;;;;;4.40;3.33;;;23.60;72.30;;;;;;5064803;28;20450;-70
2024/03/31 10:09:31;;;;;;;7.13;3.40;;;23.70;71.50;;;;;;5067620;28;20481;-72
2024/03/31 10:11:59;;;;;;;5.07;3.13;;;23.70;70.90;;;;;;5066654;28;20486;-72
2024/03/31 10:14:27;;;;;;;5.40;3.50;;;23.80;71.50;;;;;;5064755;28;21089;-71
2024/03/31 10:16:54;;;;;;;4.10;3.10;;;23.80;71.20;;;;;;5062845;28;20461;-73
2024/03/31 10:19:22;;;;;;;5.33;3.60;;;23.80;71.00;;;;;;5067895;28;20465;-71
2024/03/31 10:21:47;;;;;;;3.57;2.80;;;23.80;71.00;;;;;;5070477;28;20488;-72
2024/03/31 10:24:18;;;;;;;3.43;2.93;;;23.80;70.70;;;;;;5066068;28;20949;-71
2024/03/31 10:26:46;;;;;;;4.13;3.33;;;23.80;69.90;;;;;;5063269;28;20210;-73
2024/03/31 10:29:13;;;;;;;3.53;3.10;;;23.90;70.20;;;;;;5066656;28;20974;-71
2024/03/31 10:31:39;;;;;;;5.20;3.33;;;23.90;69.30;;;;;;5064035;28;20546;-71
2024/03/31 10:34:07;;;;;;;6.63;3.50;;;23.90;70.10;;;;;;5063464;28;20453;-72
2024/03/31 10:36:34;;;;;;;6.67;2.63;;;23.60;63.90;;;;;;5064903;28;20229;-72
2024/03/31 10:39:01;;;;;;;14.03;3.40;;;23.40;62.70;;;;;;5066571;28;20448;-72
2024/03/31 10:41:28;;;;;;;9.53;2.57;;;23.40;62.50;;;;;;5064955;28;20453;-72
2024/03/31 10:43:57;;;;;;;5.70;2.33;;;21.80;58.20;;;;;;5070974;28;20464;-73
2024/03/31 10:46:23;;;;;;;7.27;2.77;;;21.60;60.90;;;;;;5072999;28;20460;-71
2024/03/31 10:48:55;;;;;;;6.27;2.50;;;21.50;62.00;;;;;;5074733;28;20899;-72
2024/03/31 10:51:23;;;;;;;8.85;2.20;;;21.10;60.80;;;;;;5069848;28;20547;-72
2024/03/31 10:53:50;;;;;;;6.22;1.80;;;20.70;61.30;;;;;;5065994;28;20217;-71
2024/03/31 10:56:24;;;;;;;6.10;1.85;;;20.40;59.10;;;;;;5070133;28;20615;-71
2024/03/31 10:58:51;;;;;;;8.13;2.90;;;20.50;59.70;;;;;;5068622;28;20198;-72
2024/03/31 11:01:17;;;;;;;10.60;2.53;;;21.20;60.20;;;;;;5070061;28;20247;-74
2024/03/31 11:03:46;;;;;;;11.68;3.13;;;21.30;65.10;;;;;;5069758;28;20205;-72
2024/03/31 11:06:13;;;;;;;10.53;4.63;;;22.10;65.30;;;;;;5061295;28;20342;-72
2024/03/31 11:08:43;;;;;;;14.40;4.60;;;22.50;65.00;;;;;;5066751;28;20456;-72
2024/03/31 11:11:09;;;;;;;16.50;6.00;;;22.70;65.00;;;;;;5066650;28;20533;-72
2024/03/31 11:13:36;;;;;;;13.03;4.70;;;22.80;65.30;;;;;;5067788;28;20599;-73
2024/03/31 11:16:05;;;;;;;13.87;5.10;;;22.90;65.40;;;;;;5067429;28;20482;-73
2024/03/31 11:18:32;;;;;;;11.17;5.07;;;23.00;66.20;;;;;;5072257;28;23057;-73
2024/03/31 11:21:06;;;;;;;19.43;5.23;;;23.10;66.30;;;;;;5073431;28;20467;-73
2024/03/31 11:23:32;;;;;;;13.33;4.87;;;23.20;67.00;;;;;;5073525;28;20458;-73
2024/03/31 11:26:00;;;;;;;16.03;4.47;;;23.30;67.10;;;;;;5072796;28;20448;-73
2024/03/31 11:28:27;;;;;;;10.93;4.77;;;23.30;66.80;;;;;;5073657;28;20478;-73
2024/03/31 11:30:53;;;;;;;7.60;4.57;;;23.30;67.20;;;;;;5076153;28;22094;-73
2024/03/31 11:33:20;;;;;;;14.20;5.80;;;23.40;67.60;;;;;;5073594;28;20480;-74
2024/03/31 11:35:46;;;;;;;10.53;4.63;;;23.50;67.70;;;;;;5072152;28;20467;-75
2024/03/31 11:38:14;;;;;;;8.63;4.50;;;23.50;67.70;;;;;;5067973;28;20593;-74
2024/03/31 11:40:41;;;;;;;11.50;4.50;;;23.50;67.50;;;;;;5073556;28;20456;-74
2024/03/31 11:43:10;;;;;;;15.73;5.20;;;23.50;67.80;;;;;;5069947;28;20589;-74
2024/03/31 11:45:36;;;;;;;9.77;4.20;;;23.60;68.10;;;;;;5067668;28;20518;-74
2024/03/31 11:48:04;;;;;;;10.77;4.97;;;23.60;68.20;;;;;;5068204;28;20923;-74
2024/03/31 11:50:30;;;;;;;12.60;5.17;;;23.60;68.40;;;;;;5076372;28;20452;-74
2024/03/31 11:52:57;;;;;;;12.30;5.90;;;23.70;68.50;;;;;;5062297;28;21191;-75
2024/03/31 11:55:22;;;;;;;7.57;4.77;;;23.60;68.30;;;;;;5061435;28;20460;-73
2024/03/31 11:57:49;;;;;;;12.67;5.17;;;23.60;68.70;;;;;;5063973;28;21214;-73
2024/03/31 12:00:16;;;;;;;9.50;3.90;;;23.60;68.20;;;;;;5060556;28;20203;-74
2024/03/31 12:02:43;;;;;;;9.90;5.00;;;23.60;68.40;;;;;;5065528;28;20463;-77
2024/03/31 12:05:16;;;;;;;9.97;4.57;;;23.60;68.10;;;;;;5070821;28;21061;-76
2024/03/31 12:07:43;;;;;;;13.00;4.63;;;23.60;67.00;;;;;;5067649;28;20457;-75
2024/03/31 12:10:09;;;;;;;10.43;5.40;;;23.60;67.90;;;;;;5062954;28;20459;-78
2024/03/31 12:12:36;;;;;;;18.37;5.57;;;23.70;68.00;;;;;;5063834;28;20471;-74
2024/03/31 12:15:03;;;;;;;12.10;6.00;;;23.70;68.50;;;;;;5070240;28;20306;-75
2024/03/31 12:17:31;;;;;;;15.30;7.27;;;23.70;68.40;;;;;;5066288;28;20473;-74
2024/03/31 12:19:57;;;;;;;15.10;7.37;;;23.70;68.20;;;;;;5066451;28;20459;-72
2024/03/31 12:22:24;;;;;;;19.13;7.50;;;23.70;68.00;;;;;;5065466;28;20448;-73
2024/03/31 12:24:51;;;;;;;17.90;7.60;;;23.70;67.60;;;;;;5056143;28;20206;-74
2024/03/31 12:27:17;;;;;;;19.00;8.07;;;23.70;68.40;;;;;;5065303;28;20452;-75
2024/03/31 12:29:43;;;;;;;24.90;11.37;;;23.70;68.80;;;;;;5058950;28;20455;-77
2024/03/31 12:32:10;;;;;;;23.50;9.50;;;23.70;68.70;;;;;;5062831;28;21215;-75
2024/03/31 12:34:37;;;;;;;23.60;9.63;;;23.70;68.10;;;;;;5063568;28;21110;-75
2024/03/31 12:37:04;;;;;;;30.03;10.57;;;23.70;68.10;;;;;;5064620;28;20455;-75
2024/03/31 12:39:30;;;;;;;25.27;11.23;;;23.70;68.60;;;;;;5067955;28;21416;-75